Time;durP1;ratioP1;P1;durP2;ratioP2;P2;SDS_P1;SDS_P2;PMS_P1;PMS_P2;Temp;Humidity;BMP_temperature;BMP_pressure;BME280_temperature;BME280_humidity;BME280_pressure;Samples;Min_cycle;Max_cycle;Signal;HPM_P1;HPM_P2
2021/10/16 00:00:23;;;;;;;9.35;4.75;;;6.90;97.80;;;;;;5075851;28;20032;-87
2021/10/16 00:02:49;;;;;;;13.50;6.45;;;7.00;97.80;;;;;;5075735;28;20033;-87
2021/10/16 00:05:14;;;;;;;9.70;4.75;;;7.00;97.80;;;;;;5074920;28;20519;-88
2021/10/16 00:07:40;;;;;;;10.88;6.47;;;7.10;97.80;;;;;;5075739;28;20041;-87
2021/10/16 00:10:06;;;;;;;15.15;6.55;;;7.10;97.80;;;;;;5057693;28;20127;-88
2021/10/16 00:12:32;;;;;;;13.00;6.88;;;7.10;97.70;;;;;;5057235;28;20033;-88
2021/10/16 00:14:58;;;;;;;9.10;4.47;;;7.20;97.70;;;;;;5057904;28;20074;-88
2021/10/16 00:17:24;;;;;;;14.80;8.57;;;7.20;97.70;;;;;;5057316;28;20372;-88
2021/10/16 00:19:50;;;;;;;11.45;5.38;;;7.20;97.70;;;;;;5057395;28;20059;-88
2021/10/16 00:22:20;;;;;;;10.63;5.13;;;7.30;97.60;;;;;;5075554;28;20028;-88
2021/10/16 00:24:46;;;;;;;7.47;4.50;;;7.30;97.60;;;;;;5058157;28;20032;-88
2021/10/16 00:27:12;;;;;;;11.57;5.22;;;7.30;97.50;;;;;;5075372;28;20120;-87
2021/10/16 00:29:38;;;;;;;9.65;5.18;;;7.30;97.40;;;;;;5057519;28;20119;-88
2021/10/16 00:32:03;;;;;;;8.93;5.68;;;7.40;97.40;;;;;;5057475;28;20028;-88
2021/10/16 00:34:29;;;;;;;9.85;5.75;;;7.40;97.40;;;;;;5057099;28;20032;-88
2021/10/16 00:36:55;;;;;;;11.15;5.88;;;7.40;97.40;;;;;;5075526;28;20024;-88
2021/10/16 00:39:20;;;;;;;8.98;5.05;;;7.40;97.30;;;;;;5075020;28;20029;-88
2021/10/16 00:41:46;;;;;;;7.50;4.88;;;7.40;97.30;;;;;;5075214;28;20024;-88
2021/10/16 00:44:24;;;;;;;11.82;5.97;;;7.50;97.30;;;;;;5057113;28;20185;-88
2021/10/16 00:46:52;;;;;;;6.82;4.30;;;7.50;97.20;;;;;;5056931;28;20032;-88
2021/10/16 00:49:18;;;;;;;8.30;3.80;;;7.50;97.20;;;;;;5056831;28;20032;-88
2021/10/16 00:51:44;;;;;;;7.82;4.70;;;7.50;97.20;;;;;;5075073;28;20170;-88
2021/10/16 00:54:11;;;;;;;10.35;4.60;;;7.50;97.20;;;;;;5056981;28;20027;-88
2021/10/16 00:56:39;;;;;;;8.88;4.35;;;7.60;97.20;;;;;;5057040;28;20383;-88
2021/10/16 00:59:06;;;;;;;9.02;4.88;;;7.60;97.20;;;;;;5056961;28;20605;-87
2021/10/16 01:01:33;;;;;;;10.65;5.10;;;7.60;97.10;;;;;;5074528;28;20375;-88
2021/10/16 01:03:59;;;;;;;7.53;3.85;;;7.60;97.00;;;;;;5074753;28;20029;-87
2021/10/16 01:06:26;;;;;;;5.97;3.85;;;7.60;97.30;;;;;;5056900;28;20391;-88
2021/10/16 01:08:56;;;;;;;8.90;4.97;;;7.60;97.00;;;;;;5074885;28;20052;-87
2021/10/16 01:11:40;;;;;;;4.75;3.22;;;7.60;96.90;;;;;;5057594;28;20407;-87
2021/10/16 01:14:07;;;;;;;;;;;7.70;96.90;;;;;;5056923;28;20123;-87
2021/10/16 01:16:34;;;;;;;6.03;3.10;;;7.70;97.20;;;;;;5056393;28;20439;-87
2021/10/16 01:19:02;;;;;;;9.32;4.70;;;7.70;96.90;;;;;;5074486;28;20047;-87
2021/10/16 01:21:29;;;;;;;8.35;4.18;;;7.70;96.90;;;;;;5074166;28;20490;-87
2021/10/16 01:23:56;;;;;;;6.88;3.67;;;7.60;96.80;;;;;;5074068;28;20028;-87
2021/10/16 01:26:22;;;;;;;9.10;5.10;;;7.70;96.90;;;;;;5056046;28;20033;-87
2021/10/16 01:28:48;;;;;;;7.93;4.55;;;7.70;97.00;;;;;;5074488;28;20533;-87
2021/10/16 01:31:14;;;;;;;6.30;4.35;;;7.70;97.00;;;;;;5056422;28;20056;-87
2021/10/16 01:33:40;;;;;;;9.02;5.32;;;7.70;97.00;;;;;;5056112;28;20056;-87
2021/10/16 01:36:06;;;;;;;12.18;5.95;;;7.70;97.00;;;;;;5073993;28;20063;-88
2021/10/16 01:38:33;;;;;;;7.47;3.90;;;7.70;97.00;;;;;;5074456;28;20024;-87
2021/10/16 01:41:00;;;;;;;8.10;3.92;;;7.70;97.00;;;;;;5074310;28;20530;-87
2021/10/16 01:43:29;;;;;;;7.35;4.30;;;7.70;97.00;;;;;;5074276;28;20110;-87
2021/10/16 01:45:55;;;;;;;6.47;3.45;;;7.70;97.00;;;;;;5074442;28;20097;-87
2021/10/16 01:48:25;;;;;;;8.15;3.95;;;7.70;97.00;;;;;;5056192;28;20479;-87
2021/10/16 01:50:51;;;;;;;9.77;4.75;;;7.70;97.00;;;;;;5073860;28;20038;-87
2021/10/16 01:53:17;;;;;;;8.95;4.10;;;7.80;97.00;;;;;;5073844;28;20368;-87
2021/10/16 01:55:43;;;;;;;7.22;3.88;;;7.80;97.10;;;;;;5055810;28;20421;-88
2021/10/16 01:58:14;;;;;;;6.50;3.90;;;7.80;97.10;;;;;;5055885;28;20024;-87
2021/10/16 02:00:44;;;;;;;5.15;2.70;;;7.80;97.10;;;;;;5074090;28;20371;-87
2021/10/16 02:03:13;;;;;;;6.80;3.70;;;7.90;97.10;;;;;;5074068;28;20032;-87
2021/10/16 02:05:43;;;;;;;4.10;2.78;;;7.90;97.00;;;;;;5055795;28;20490;-87
2021/10/16 02:08:10;;;;;;;5.50;3.47;;;7.90;97.00;;;;;;5055557;28;20109;-88
2021/10/16 02:10:36;;;;;;;7.70;3.97;;;7.90;96.90;;;;;;5073955;28;20032;-87
2021/10/16 02:13:02;;;;;;;7.65;3.63;;;7.90;96.90;;;;;;5056063;28;20025;-87
2021/10/16 02:15:27;;;;;;;6.70;3.65;;;8.00;96.90;;;;;;5055473;28;20116;-87
2021/10/16 02:17:53;;;;;;;6.20;3.47;;;8.00;96.80;;;;;;5055474;28;20024;-87
2021/10/16 02:20:18;;;;;;;8.10;4.10;;;8.00;96.80;;;;;;5055732;28;20032;-87
2021/10/16 02:22:44;;;;;;;6.97;4.28;;;8.00;96.70;;;;;;5055663;28;20025;-87
2021/10/16 02:25:10;;;;;;;6.53;3.63;;;8.00;96.70;;;;;;5055586;28;20060;-87
2021/10/16 02:27:35;;;;;;;5.28;3.30;;;8.00;96.70;;;;;;5057766;28;20119;-87
2021/10/16 02:30:02;;;;;;;7.53;3.50;;;8.00;96.70;;;;;;5077569;28;20028;-87
2021/10/16 02:32:28;;;;;;;6.78;3.25;;;8.00;96.70;;;;;;5059724;28;20070;-87
2021/10/16 02:34:53;;;;;;;5.47;3.80;;;8.00;96.60;;;;;;5077334;28;20399;-87
2021/10/16 02:37:19;;;;;;;6.13;3.50;;;8.00;96.60;;;;;;5059275;28;20028;-87
2021/10/16 02:39:44;;;;;;;6.43;4.05;;;8.00;96.60;;;;;;5060050;28;20429;-87
2021/10/16 02:42:10;;;;;;;5.57;3.45;;;8.00;96.50;;;;;;5077300;28;20056;-87
2021/10/16 02:44:36;;;;;;;8.90;3.92;;;8.00;96.50;;;;;;5059404;28;20030;-87
2021/10/16 02:47:01;;;;;;;6.75;3.85;;;8.00;96.60;;;;;;5077135;28;20033;-87
2021/10/16 02:49:27;;;;;;;6.65;4.15;;;8.00;96.60;;;;;;5077347;28;20103;-87
2021/10/16 02:51:53;;;;;;;9.57;5.15;;;8.00;96.60;;;;;;5076812;28;20060;-88
2021/10/16 02:54:18;;;;;;;7.55;5.18;;;8.00;96.60;;;;;;5077044;28;20455;-87
2021/10/16 02:56:44;;;;;;;8.23;4.35;;;7.90;96.70;;;;;;5077004;28;20125;-87
2021/10/16 02:59:10;;;;;;;6.57;4.15;;;7.90;96.70;;;;;;5059291;28;20028;-87
2021/10/16 03:01:36;;;;;;;8.30;4.95;;;7.90;96.70;;;;;;5059232;28;20024;-87
2021/10/16 03:04:02;;;;;;;14.73;6.82;;;7.90;96.70;;;;;;5077104;28;20448;-88
2021/10/16 03:06:27;;;;;;;7.60;4.93;;;7.90;96.70;;;;;;5058680;28;20028;-87
2021/10/16 03:08:53;;;;;;;9.10;6.00;;;7.80;96.70;;;;;;5077279;28;20024;-87
2021/10/16 03:11:18;;;;;;;7.00;4.97;;;7.80;96.80;;;;;;5059493;28;20021;-87
2021/10/16 03:13:44;;;;;;;9.02;5.07;;;7.80;96.90;;;;;;5058867;28;20056;-87
2021/10/16 03:16:10;;;;;;;8.18;4.63;;;7.80;96.80;;;;;;5076704;28;20021;-87
2021/10/16 03:18:36;;;;;;;10.75;5.60;;;7.80;96.80;;;;;;5058956;28;20094;-87
2021/10/16 03:21:02;;;;;;;8.10;4.88;;;7.80;96.80;;;;;;5076714;28;20032;-88
2021/10/16 03:23:28;;;;;;;6.25;4.30;;;7.70;96.70;;;;;;5058729;28;20068;-87
2021/10/16 03:25:54;;;;;;;5.80;3.92;;;7.80;96.70;;;;;;5076758;28;20463;-87
2021/10/16 03:28:20;;;;;;;4.43;3.22;;;7.70;96.80;;;;;;5058559;28;20035;-87
2021/10/16 03:30:46;;;;;;;5.80;3.85;;;7.70;96.80;;;;;;5058594;28;20123;-87
2021/10/16 03:33:11;;;;;;;8.50;3.60;;;7.80;96.90;;;;;;5058356;28;20054;-87
2021/10/16 03:35:37;;;;;;;4.18;2.85;;;7.80;97.00;;;;;;5076105;28;20120;-87
2021/10/16 03:38:03;;;;;;;5.00;3.08;;;7.80;97.00;;;;;;5075402;28;20057;-87
2021/10/16 03:40:28;;;;;;;4.93;3.03;;;7.80;96.90;;;;;;5058042;28;20029;-87
2021/10/16 03:42:54;;;;;;;6.53;2.92;;;7.90;96.90;;;;;;5058198;28;20056;-87
2021/10/16 03:45:20;;;;;;;7.90;4.53;;;7.90;96.90;;;;;;5076237;28;20478;-87
2021/10/16 03:47:47;;;;;;;5.38;3.80;;;7.90;96.80;;;;;;5058298;28;20035;-87
2021/10/16 03:50:13;;;;;;;8.80;4.63;;;7.90;96.80;;;;;;5058225;28;20395;-87
2021/10/16 03:52:39;;;;;;;7.05;3.80;;;8.00;96.80;;;;;;5076352;28;20060;-87
2021/10/16 03:55:06;;;;;;;5.18;3.38;;;8.00;96.80;;;;;;5058193;28;20110;-87
2021/10/16 03:57:32;;;;;;;7.47;4.80;;;8.00;96.80;;;;;;5058206;28;20108;-87
2021/10/16 03:59:57;;;;;;;6.43;4.47;;;8.00;96.80;;;;;;5058011;28;20052;-88
2021/10/16 04:02:25;;;;;;;8.52;4.57;;;8.00;96.80;;;;;;5075995;28;20032;-87
2021/10/16 04:04:51;;;;;;;10.10;4.38;;;8.00;96.80;;;;;;5057956;28;20028;-88
2021/10/16 04:07:17;;;;;;;8.88;5.38;;;8.00;96.80;;;;;;5076036;28;20087;-88
2021/10/16 04:09:42;;;;;;;11.00;5.93;;;8.00;96.80;;;;;;5077005;28;20032;-87
2021/10/16 04:12:08;;;;;;;9.13;4.82;;;8.00;96.80;;;;;;5059037;28;20024;-87
2021/10/16 04:14:34;;;;;;;9.73;5.43;;;8.00;96.80;;;;;;5077475;28;20029;-87
2021/10/16 04:17:00;;;;;;;11.77;5.45;;;8.10;96.80;;;;;;5075428;28;20029;-87
2021/10/16 04:19:26;;;;;;;9.85;5.63;;;8.10;96.90;;;;;;5075714;28;20524;-87
2021/10/16 04:21:51;;;;;;;13.05;6.30;;;8.10;97.00;;;;;;5075685;28;20024;-87
2021/10/16 04:24:19;;;;;;;12.23;6.55;;;8.00;96.90;;;;;;5075815;28;20089;-87
2021/10/16 04:26:44;;;;;;;13.15;7.07;;;8.10;97.00;;;;;;5075568;28;20024;-87
2021/10/16 04:29:10;;;;;;;12.13;7.30;;;8.10;97.00;;;;;;5057348;28;20031;-87
2021/10/16 04:31:36;;;;;;;16.90;9.32;;;8.20;97.10;;;;;;5057295;28;20154;-88
2021/10/16 04:34:02;;;;;;;19.10;9.75;;;8.20;97.00;;;;;;5075035;28;20024;-88
2021/10/16 04:36:29;;;;;;;16.48;9.55;;;8.20;97.00;;;;;;5057216;28;20032;-88
2021/10/16 04:38:55;;;;;;;21.88;11.52;;;8.20;96.90;;;;;;5075380;28;20021;-88
2021/10/16 04:41:21;;;;;;;17.13;9.50;;;8.30;96.90;;;;;;5056932;28;20391;-87
2021/10/16 04:43:47;;;;;;;17.83;9.20;;;8.30;97.10;;;;;;5075071;28;20128;-87
2021/10/16 04:46:13;;;;;;;11.82;7.07;;;8.30;96.90;;;;;;5057267;28;20024;-87
2021/10/16 04:48:42;;;;;;;14.50;8.00;;;8.30;96.90;;;;;;5074773;28;20032;-88
2021/10/16 04:51:13;;;;;;;15.20;8.73;;;8.40;96.90;;;;;;5074562;28;20070;-87
2021/10/16 04:53:39;;;;;;;21.42;9.63;;;8.40;96.90;;;;;;5056984;28;20031;-87
2021/10/16 04:56:05;;;;;;;19.02;8.98;;;8.40;96.80;;;;;;5057104;28;20024;-87
2021/10/16 04:58:31;;;;;;;16.95;8.73;;;8.50;96.70;;;;;;5056788;28;20029;-87
2021/10/16 05:00:57;;;;;;;15.77;9.43;;;8.50;96.60;;;;;;5074888;28;20027;-88
2021/10/16 05:03:23;;;;;;;16.85;9.63;;;8.50;96.50;;;;;;5074413;28;20032;-87
2021/10/16 05:05:49;;;;;;;14.38;9.10;;;8.50;96.50;;;;;;5075141;28;20069;-87
2021/10/16 05:08:14;;;;;;;15.65;7.35;;;8.50;96.60;;;;;;5057060;28;20444;-87
2021/10/16 05:10:40;;;;;;;15.32;7.78;;;8.50;96.60;;;;;;5073981;28;20032;-88
2021/10/16 05:13:06;;;;;;;14.60;7.55;;;8.50;96.60;;;;;;5056531;28;20032;-88
2021/10/16 05:15:32;;;;;;;15.25;9.02;;;8.60;96.60;;;;;;5056514;28;20036;-88
2021/10/16 05:17:57;;;;;;;16.20;8.52;;;8.60;96.60;;;;;;5056576;28;20143;-87
2021/10/16 05:20:23;;;;;;;24.48;13.43;;;8.60;96.60;;;;;;5056612;28;20028;-87
2021/10/16 05:22:49;;;;;;;23.92;11.52;;;8.70;96.60;;;;;;5074190;28;20421;-87
2021/10/16 05:25:15;;;;;;;18.30;10.45;;;8.70;96.80;;;;;;5056485;28;20384;-87
2021/10/16 05:27:42;;;;;;;20.90;11.05;;;8.70;96.60;;;;;;5074318;28;20459;-87
2021/10/16 05:30:09;;;;;;;16.75;10.75;;;8.80;96.60;;;;;;5073945;28;20337;-88
2021/10/16 05:32:34;;;;;;;19.85;10.30;;;8.80;96.60;;;;;;5056428;28;20025;-88
2021/10/16 05:35:00;;;;;;;25.88;11.77;;;8.90;96.60;;;;;;5057075;28;20078;-88
2021/10/16 05:37:26;;;;;;;17.92;11.40;;;8.90;96.50;;;;;;5057017;28;20032;-88
2021/10/16 05:39:52;;;;;;;23.02;13.60;;;9.00;96.40;;;;;;5056311;28;20090;-87
2021/10/16 05:42:18;;;;;;;31.25;17.10;;;9.00;96.30;;;;;;5073658;28;20094;-88
2021/10/16 05:44:43;;;;;;;29.35;16.85;;;9.00;96.20;;;;;;5073950;28;20474;-87
2021/10/16 05:47:09;;;;;;;29.52;16.70;;;9.10;96.10;;;;;;5074230;28;20036;-87
2021/10/16 05:49:35;;;;;;;33.65;16.85;;;9.20;96.10;;;;;;5074067;28;20051;-87
2021/10/16 05:52:00;;;;;;;33.67;16.35;;;9.20;96.00;;;;;;5055836;28;20482;-87
2021/10/16 05:54:27;;;;;;;28.85;16.35;;;9.30;96.00;;;;;;5073818;28;20024;-87
2021/10/16 05:56:53;;;;;;;31.50;14.55;;;9.30;95.90;;;;;;5073675;28;20037;-87
2021/10/16 05:59:18;;;;;;;28.98;13.30;;;9.40;95.90;;;;;;5073507;28;20032;-87
2021/10/16 06:01:44;;;;;;;34.05;16.55;;;9.50;95.80;;;;;;5073283;28;20107;-87
2021/10/16 06:04:09;;;;;;;24.95;14.35;;;9.50;95.70;;;;;;5052526;28;20032;-88
2021/10/16 06:06:35;;;;;;;25.13;13.15;;;9.60;95.70;;;;;;5064643;28;20031;-88
2021/10/16 06:09:01;;;;;;;26.45;14.65;;;9.70;95.60;;;;;;5055202;28;20029;-87
2021/10/16 06:11:26;;;;;;;28.50;14.63;;;9.80;95.50;;;;;;5073185;28;20056;-88
2021/10/16 06:13:53;;;;;;;30.10;15.52;;;9.80;95.40;;;;;;5055202;28;20032;-88
2021/10/16 06:16:18;;;;;;;37.85;18.52;;;9.90;95.30;;;;;;5055411;28;20067;-88
2021/10/16 06:18:45;;;;;;;25.23;14.77;;;9.90;95.20;;;;;;5071189;28;20424;-88
2021/10/16 06:21:11;;;;;;;28.58;17.25;;;10.00;95.20;;;;;;5054258;28;20445;-88
2021/10/16 06:23:37;;;;;;;39.70;17.88;;;10.00;95.50;;;;;;5071911;28;20024;-87
2021/10/16 06:26:04;;;;;;;27.95;14.77;;;10.10;95.20;;;;;;5055154;28;20025;-88
2021/10/16 06:28:30;;;;;;;28.25;15.40;;;10.10;95.20;;;;;;5054444;28;20383;-88
2021/10/16 06:30:56;;;;;;;33.28;16.40;;;10.20;95.20;;;;;;5072997;28;20036;-87
2021/10/16 06:33:22;;;;;;;28.92;17.75;;;10.20;95.10;;;;;;5073476;28;20021;-88
2021/10/16 06:35:48;;;;;;;30.05;16.33;;;10.30;95.00;;;;;;5055257;28;20174;-88
2021/10/16 06:38:14;;;;;;;36.17;18.90;;;10.30;95.00;;;;;;5056102;28;20078;-87
2021/10/16 06:40:39;;;;;;;29.17;16.13;;;10.30;94.90;;;;;;5058246;28;20028;-87
2021/10/16 06:43:05;;;;;;;30.08;16.38;;;10.40;94.90;;;;;;5054785;28;20071;-87
2021/10/16 06:45:31;;;;;;;24.25;15.10;;;10.40;94.90;;;;;;5073208;28;20383;-88
2021/10/16 06:47:57;;;;;;;19.80;11.85;;;10.50;94.80;;;;;;5073081;28;20108;-87
2021/10/16 06:50:23;;;;;;;20.65;12.13;;;10.50;94.70;;;;;;5072729;28;20074;-86
2021/10/16 06:52:48;;;;;;;21.27;12.23;;;10.50;94.70;;;;;;5073232;28;20028;-87
2021/10/16 06:55:14;;;;;;;20.60;11.77;;;10.50;94.70;;;;;;5073515;28;20029;-87
2021/10/16 06:57:40;;;;;;;17.88;10.73;;;10.50;94.70;;;;;;5073275;28;20028;-87
2021/10/16 07:00:06;;;;;;;16.58;10.68;;;10.50;94.70;;;;;;5073030;28;20060;-87
2021/10/16 07:02:32;;;;;;;18.42;10.68;;;10.50;94.80;;;;;;5072693;28;20475;-87
2021/10/16 07:04:58;;;;;;;19.70;12.00;;;10.60;94.80;;;;;;5072899;28;20463;-87
2021/10/16 07:07:24;;;;;;;14.02;9.57;;;10.60;94.80;;;;;;5054718;28;20040;-87
2021/10/16 07:09:49;;;;;;;15.55;8.85;;;10.60;94.90;;;;;;5072525;28;20036;-87
2021/10/16 07:12:15;;;;;;;18.90;10.85;;;10.70;94.90;;;;;;5054451;28;20391;-87
2021/10/16 07:14:41;;;;;;;19.27;9.43;;;10.70;94.90;;;;;;5058450;28;20024;-87
2021/10/16 07:17:07;;;;;;;16.30;9.00;;;10.70;94.80;;;;;;5058539;28;20387;-87
2021/10/16 07:19:33;;;;;;;17.52;10.68;;;10.70;94.80;;;;;;5076311;28;20054;-87
2021/10/16 07:22:00;;;;;;;19.80;10.85;;;10.70;94.80;;;;;;5058310;28;20024;-87
2021/10/16 07:24:25;;;;;;;19.58;12.18;;;10.80;94.80;;;;;;5075991;28;20056;-88
2021/10/16 07:26:53;;;;;;;21.27;10.85;;;10.80;94.80;;;;;;5057262;28;20465;-87
2021/10/16 07:29:22;;;;;;;20.73;10.30;;;10.80;94.80;;;;;;5058588;28;20107;-88
2021/10/16 07:31:49;;;;;;;14.63;8.68;;;10.80;94.80;;;;;;5058557;28;20032;-88
2021/10/16 07:34:15;;;;;;;15.02;9.65;;;10.80;94.90;;;;;;5058200;28;20479;-88
2021/10/16 07:36:42;;;;;;;14.63;8.68;;;10.90;94.90;;;;;;5076177;28;20039;-87
2021/10/16 07:39:08;;;;;;;11.50;7.70;;;10.90;94.80;;;;;;5076625;28;20024;-88
2021/10/16 07:41:36;;;;;;;15.15;9.30;;;10.90;94.80;;;;;;5058231;28;20024;-89
2021/10/16 07:44:03;;;;;;;12.73;8.23;;;10.90;94.70;;;;;;5076546;28;20045;-89
2021/10/16 07:46:29;;;;;;;11.73;7.95;;;10.90;94.60;;;;;;5076461;28;20111;-87
2021/10/16 07:48:54;;;;;;;13.68;7.28;;;10.90;94.60;;;;;;5058359;28;20115;-87
2021/10/16 07:51:20;;;;;;;13.95;7.97;;;10.90;94.60;;;;;;5058419;28;20020;-88
2021/10/16 07:53:47;;;;;;;13.30;8.40;;;10.90;94.50;;;;;;5076139;28;20017;-87
2021/10/16 07:56:13;;;;;;;13.85;8.15;;;11.00;94.50;;;;;;5057723;28;20081;-87
2021/10/16 07:58:41;;;;;;;13.20;8.63;;;11.00;94.60;;;;;;5057910;28;20481;-87
2021/10/16 08:01:08;;;;;;;12.68;7.80;;;10.90;94.60;;;;;;5075927;28;20032;-87
2021/10/16 08:03:34;;;;;;;13.55;8.70;;;11.00;94.60;;;;;;5056532;28;20031;-88
2021/10/16 08:06:00;;;;;;;11.75;8.70;;;11.10;94.70;;;;;;5056716;28;20035;-87
2021/10/16 08:08:27;;;;;;;11.63;8.40;;;11.10;94.60;;;;;;5056981;28;20115;-88
2021/10/16 08:10:53;;;;;;;15.35;11.32;;;11.20;94.60;;;;;;5075185;28;20063;-88
2021/10/16 08:13:19;;;;;;;15.52;9.52;;;11.20;94.60;;;;;;5075663;28;20383;-88
2021/10/16 08:15:45;;;;;;;15.25;9.40;;;11.30;94.50;;;;;;5075738;28;20020;-88
2021/10/16 08:18:11;;;;;;;11.60;8.73;;;11.40;94.40;;;;;;5057702;28;20115;-88
2021/10/16 08:20:36;;;;;;;16.42;11.00;;;11.40;94.30;;;;;;5057411;28;20111;-88
2021/10/16 08:23:04;;;;;;;16.27;10.23;;;11.50;94.20;;;;;;5075243;28;20054;-88
2021/10/16 08:25:31;;;;;;;14.70;10.52;;;11.50;94.10;;;;;;5074549;28;20048;-88
2021/10/16 08:27:57;;;;;;;18.63;10.45;;;11.50;94.00;;;;;;5057726;28;20035;-88
2021/10/16 08:30:22;;;;;;;14.38;9.90;;;11.50;94.00;;;;;;5075522;28;20032;-88
2021/10/16 08:32:48;;;;;;;16.90;10.32;;;11.60;93.90;;;;;;5057302;28;20073;-87
2021/10/16 08:35:14;;;;;;;17.95;11.50;;;11.60;94.00;;;;;;5057129;28;20020;-88
2021/10/16 08:37:40;;;;;;;19.38;11.75;;;11.60;93.90;;;;;;5074508;28;20029;-88
2021/10/16 08:40:06;;;;;;;15.15;10.07;;;11.60;93.90;;;;;;5073832;28;20029;-87
2021/10/16 08:42:34;;;;;;;15.07;8.95;;;11.70;93.80;;;;;;5075025;28;20518;-86
2021/10/16 08:45:04;;;;;;;14.23;10.18;;;11.70;93.70;;;;;;5075721;28;20456;-87
2021/10/16 08:47:36;;;;;;;16.15;11.05;;;11.80;93.80;;;;;;5056535;28;20033;-88
2021/10/16 08:50:05;;;;;;;13.32;8.18;;;11.80;93.70;;;;;;5056881;28;20491;-87
2021/10/16 08:52:31;;;;;;;13.63;9.38;;;11.90;93.60;;;;;;5056741;28;20071;-87
2021/10/16 08:54:57;;;;;;;18.60;11.40;;;11.90;93.60;;;;;;5055248;28;20447;-88
2021/10/16 08:57:28;;;;;;;16.05;10.32;;;12.00;93.50;;;;;;5048993;28;20029;-88
2021/10/16 08:59:54;;;;;;;14.70;9.73;;;12.10;93.40;;;;;;5063614;28;20112;-88
2021/10/16 09:02:20;;;;;;;13.23;9.02;;;12.10;93.30;;;;;;5062317;28;20476;-88
2021/10/16 09:04:45;;;;;;;14.38;9.63;;;12.20;93.10;;;;;;5042954;28;20529;-89
2021/10/16 09:07:24;;;;;;;13.52;8.02;;;12.20;93.20;;;;;;5037484;28;20041;-89
2021/10/16 09:09:51;;;;;;;11.57;8.18;;;12.20;93.10;;;;;;5040162;28;20041;-90
2021/10/16 09:12:18;;;;;;;11.68;7.45;;;12.30;93.00;;;;;;5039191;28;20032;-88
2021/10/16 09:14:49;;;;;;;11.85;8.52;;;12.30;93.00;;;;;;5041743;28;20031;-89
2021/10/16 09:17:16;;;;;;;11.15;7.40;;;12.30;92.80;;;;;;5054561;28;20028;-88
2021/10/16 09:19:43;;;;;;;15.13;9.25;;;12.30;92.70;;;;;;5046690;28;20434;-89
2021/10/16 09:22:21;;;;;;;15.25;9.65;;;12.20;92.40;;;;;;5040778;28;20429;-88
2021/10/16 09:24:49;;;;;;;14.55;9.18;;;12.10;92.30;;;;;;5052399;28;20078;-89
2021/10/16 09:27:22;;;;;;;11.98;8.35;;;12.10;92.40;;;;;;5049674;28;20021;-88
2021/10/16 09:30:00;;;;;;;9.55;7.13;;;12.00;92.70;;;;;;5052015;28;20024;-89
2021/10/16 09:32:27;;;;;;;12.48;7.82;;;12.10;93.10;;;;;;5048073;28;20111;-91
2021/10/16 09:35:01;;;;;;;14.27;8.80;;;12.10;93.30;;;;;;5056755;28;20033;-91
2021/10/16 09:38:12;;;;;;;;;;;;;;;;;;;;;
2021/10/16 09:40:41;;;;;;;7.80;6.18;;;12.30;93.10;;;;;;5061174;28;20041;-88
2021/10/16 09:43:22;;;;;;;14.80;8.77;;;12.30;92.80;;;;;;5072307;28;20052;-85
2021/10/16 09:46:12;;;;;;;13.57;8.38;;;12.40;92.80;;;;;;5060106;28;20074;-88
2021/10/16 09:48:41;;;;;;;9.50;7.70;;;12.50;92.70;;;;;;5059939;28;20043;-90
2021/10/16 09:51:14;;;;;;;14.40;9.43;;;12.50;92.60;;;;;;5051005;28;20053;-92
2021/10/16 09:53:46;;;;;;;15.20;9.30;;;12.60;92.40;;;;;;5060107;28;20040;-90
2021/10/16 09:56:14;;;;;;;15.45;10.30;;;12.70;92.60;;;;;;5067626;28;20040;-92
2021/10/16 09:58:41;;;;;;;15.10;9.80;;;12.80;92.20;;;;;;5064275;28;20067;-92
2021/10/16 10:01:17;;;;;;;12.48;8.90;;;12.80;92.10;;;;;;5047838;28;20040;-94
2021/10/16 10:03:44;;;;;;;15.10;9.82;;;12.80;91.90;;;;;;5056358;28;20069;-93
2021/10/16 10:06:16;;;;;;;11.70;7.95;;;13.00;92.30;;;;;;5054807;28;20033;-90
2021/10/16 10:08:49;;;;;;;11.75;8.07;;;13.10;92.60;;;;;;5056512;28;20049;-89
2021/10/16 10:11:16;;;;;;;9.45;7.47;;;13.30;92.30;;;;;;5049073;28;20029;-89
2021/10/16 10:13:51;;;;;;;8.75;6.63;;;13.50;92.20;;;;;;5039366;28;20136;-91
2021/10/16 10:16:18;;;;;;;11.25;8.45;;;13.70;92.00;;;;;;5037414;28;20067;-91
2021/10/16 10:19:06;;;;;;;16.00;9.73;;;13.90;91.80;;;;;;5046331;28;20035;-90
2021/10/16 10:21:33;;;;;;;15.52;9.57;;;14.10;91.20;;;;;;5056944;28;20048;-92
2021/10/16 10:24:03;;;;;;;15.30;10.02;;;14.20;90.50;;;;;;5053328;28;20113;-91
2021/10/16 10:26:38;;;;;;;12.07;8.10;;;14.20;90.10;;;;;;5045781;28;20113;-91
2021/10/16 10:29:17;;;;;;;12.07;8.68;;;14.30;90.40;;;;;;5061671;28;20037;-90
2021/10/16 10:31:53;;;;;;;13.07;9.15;;;14.40;90.10;;;;;;5038418;28;20046;-89
2021/10/16 10:34:20;;;;;;;14.00;9.57;;;14.50;89.90;;;;;;5060549;28;20040;-88
2021/10/16 10:37:12;;;;;;;12.77;8.45;;;14.50;89.30;;;;;;5068113;28;20064;-91
2021/10/16 10:39:41;;;;;;;10.85;7.80;;;14.60;88.80;;;;;;5035983;28;20045;-91
2021/10/16 10:42:44;;;;;;;13.18;8.88;;;14.50;88.60;;;;;;5071236;28;20105;-90
2021/10/16 10:45:45;;;;;;;12.05;7.72;;;14.50;87.70;;;;;;5048523;28;20391;-93
2021/10/16 10:48:16;;;;;;;10.32;7.60;;;14.40;87.80;;;;;;4981319;28;20392;-90
2021/10/16 10:50:57;;;;;;;8.25;6.22;;;14.40;88.60;;;;;;5052306;28;20036;-90
2021/10/16 10:53:29;;;;;;;12.38;8.40;;;14.40;88.90;;;;;;5022656;28;20044;-89
2021/10/16 10:56:15;;;;;;;15.50;10.48;;;14.50;88.50;;;;;;5044818;28;20044;-88
2021/10/16 10:59:17;;;;;;;14.07;10.75;;;14.50;88.50;;;;;;5040647;28;20451;-89
2021/10/16 11:02:06;;;;;;;21.35;14.07;;;14.50;88.50;;;;;;5032063;28;20041;-89
2021/10/16 11:04:35;;;;;;;26.08;15.27;;;14.60;89.10;;;;;;5062944;28;20020;-90
2021/10/16 11:07:05;;;;;;;25.95;18.67;;;14.50;89.10;;;;;;5039314;28;20049;-89
2021/10/16 11:09:33;;;;;;;25.20;16.67;;;14.50;89.10;;;;;;5029905;28;20094;-89
2021/10/16 11:12:07;;;;;;;32.33;20.60;;;14.40;88.60;;;;;;5043907;28;20033;-89
2021/10/16 11:14:51;;;;;;;;;;;;;;;;;;;;;
2021/10/16 11:17:21;;;;;;;30.33;19.70;;;14.20;89.30;;;;;;5050831;28;20045;-89
2021/10/16 11:20:09;;;;;;;24.15;16.42;;;14.10;89.90;;;;;;5058126;28;20033;-88
2021/10/16 11:22:50;;;;;;;24.02;15.23;;;13.90;89.60;;;;;;5074285;28;20055;-89
2021/10/16 11:25:30;;;;;;;20.52;12.55;;;13.80;90.10;;;;;;5038452;28;20029;-89
2021/10/16 11:28:05;;;;;;;23.90;15.63;;;13.70;90.30;;;;;;5055452;28;20080;-88
2021/10/16 11:30:35;;;;;;;20.45;13.48;;;13.70;90.50;;;;;;5056117;28;20036;-89
2021/10/16 11:33:08;;;;;;;30.85;18.30;;;13.60;90.60;;;;;;5050356;28;20436;-88
2021/10/16 11:35:37;;;;;;;19.90;12.48;;;13.60;90.50;;;;;;5050864;28;20048;-89
2021/10/16 11:38:04;;;;;;;23.27;14.90;;;13.60;90.50;;;;;;5038400;28;20383;-89
2021/10/16 11:40:32;;;;;;;19.40;13.90;;;13.60;90.60;;;;;;5038259;28;20025;-89
2021/10/16 11:43:01;;;;;;;20.45;14.48;;;13.50;90.40;;;;;;5038015;28;20491;-88
2021/10/16 11:45:33;;;;;;;26.17;15.73;;;13.40;90.30;;;;;;5051790;28;20035;-88
2021/10/16 11:48:02;;;;;;;20.48;12.05;;;13.30;90.10;;;;;;5042910;28;20537;-89
2021/10/16 11:50:33;;;;;;;15.90;11.38;;;13.20;90.30;;;;;;5039223;28;20052;-88
2021/10/16 11:53:13;;;;;;;14.93;9.95;;;13.10;90.50;;;;;;5038186;28;20111;-88
2021/10/16 11:55:41;;;;;;;16.33;11.43;;;13.00;90.50;;;;;;5055514;28;20021;-88
2021/10/16 11:58:13;;;;;;;21.00;12.70;;;13.00;90.70;;;;;;5070843;28;20089;-90
2021/10/16 12:00:40;;;;;;;20.35;13.35;;;12.90;90.60;;;;;;5056565;28;20480;-87
2021/10/16 12:03:08;;;;;;;18.02;11.23;;;12.80;90.70;;;;;;5046196;28;20035;-88
2021/10/16 12:05:36;;;;;;;20.85;12.07;;;12.70;90.80;;;;;;5054386;28;20027;-89
2021/10/16 12:08:43;;;;;;;14.48;9.73;;;12.70;91.20;;;;;;5047397;28;20044;-88
2021/10/16 12:11:31;;;;;;;13.77;9.55;;;12.70;91.20;;;;;;5025659;28;20052;-89
2021/10/16 12:13:59;;;;;;;13.48;9.13;;;12.70;91.20;;;;;;5037935;28;20463;-90
2021/10/16 12:16:33;;;;;;;12.98;8.27;;;12.70;91.10;;;;;;5072433;28;20411;-88
2021/10/16 12:19:01;;;;;;;17.92;11.13;;;12.70;91.20;;;;;;5049194;28;20037;-89
2021/10/16 12:21:32;;;;;;;13.93;9.57;;;12.70;91.20;;;;;;5056986;28;20060;-89
2021/10/16 12:24:18;;;;;;;15.65;10.43;;;12.70;91.20;;;;;;5051677;28;20068;-88
2021/10/16 12:26:48;;;;;;;15.23;11.68;;;12.70;91.10;;;;;;5050444;28;20028;-89
2021/10/16 12:29:31;;;;;;;19.00;12.93;;;12.60;91.20;;;;;;5050378;28;20067;-90
2021/10/16 12:31:57;;;;;;;18.52;13.18;;;12.60;91.30;;;;;;5058622;28;20033;-89
2021/10/16 12:34:31;;;;;;;19.08;11.48;;;12.60;91.50;;;;;;5041906;28;20491;-88
2021/10/16 12:37:05;;;;;;;18.17;10.20;;;12.60;91.50;;;;;;5065085;28;20040;-89
2021/10/16 12:39:35;;;;;;;17.67;11.80;;;12.60;91.70;;;;;;5075087;28;20111;-89
2021/10/16 12:42:21;;;;;;;17.38;11.93;;;12.60;91.60;;;;;;5056968;28;20115;-88
2021/10/16 12:44:54;;;;;;;16.98;11.60;;;12.50;91.60;;;;;;5039131;28;20033;-89
2021/10/16 12:47:24;;;;;;;15.25;11.55;;;12.50;91.60;;;;;;5044870;28;20025;-90
2021/10/16 12:50:03;;;;;;;22.05;15.27;;;12.50;91.60;;;;;;5054117;28;20495;-91